TimePST,TemperatureF,Dew PointF,Humidity,Sea Level PressureIn,VisibilityMPH,Wind Direction,Wind SpeedMPH,Gust SpeedMPH,PrecipitationIn,Events,Conditions,WindDirDegrees,DateUTC
12:52 AM,5.0,1.0,84,30.33,-9999.0,ENE,5.8,-,N/A,,Unknown,70,2013-01-23 08:52:00
1:52 AM,8.1,3.9,83,30.33,-9999.0,Calm,Calm,-,N/A,,Unknown,0,2013-01-23 09:52:00
2:52 AM,5.0,1.9,87,30.34,-9999.0,Calm,Calm,-,N/A,,Unknown,0,2013-01-23 10:52:00
3:52 AM,5.0,1.9,87,30.33,-9999.0,Calm,Calm,-,N/A,,Unknown,0,2013-01-23 11:52:00
4:52 AM,3.0,-0.0,87,30.35,-9999.0,Calm,Calm,-,N/A,,Unknown,0,2013-01-23 12:52:00
5:52 AM,10.0,6.1,84,30.33,-9999.0,Calm,Calm,-,N/A,,Unknown,0,2013-01-23 13:52:00
6:52 AM,10.0,6.1,84,30.33,-9999.0,Calm,Calm,-,N/A,,Unknown,0,2013-01-23 14:52:00
7:52 AM,10.0,6.1,84,30.35,-9999.0,Calm,Calm,-,N/A,,Unknown,0,2013-01-23 15:52:00
8:52 AM,12.0,8.1,84,30.33,-9999.0,Calm,Calm,-,N/A,,Unknown,0,2013-01-23 16:52:00
9:52 AM,14.0,8.1,77,30.32,-9999.0,NNE,5.8,-,N/A,,Unknown,30,2013-01-23 17:52:00
10:52 AM,16.0,8.1,71,30.33,-9999.0,NE,5.8,-,N/A,,Unknown,40,2013-01-23 18:52:00
11:52 AM,18.0,9.0,68,30.30,-9999.0,Calm,Calm,-,N/A,,Unknown,0,2013-01-23 19:52:00
12:52 PM,19.9,10.9,68,30.26,-9999.0,Calm,Calm,-,N/A,,Unknown,0,2013-01-23 20:52:00
1:52 PM,23.0,10.9,60,30.23,-9999.0,Calm,Calm,-,N/A,,Unknown,0,2013-01-23 21:52:00
2:52 PM,21.0,10.9,65,30.24,-9999.0,NNE,5.8,-,N/A,,Unknown,30,2013-01-23 22:52:00
3:52 PM,21.0,12.0,68,30.24,-9999.0,NE,8.1,-,N/A,,Unknown,40,2013-01-23 23:52:00
4:52 PM,19.9,12.0,71,30.24,-9999.0,NE,5.8,-,N/A,,Unknown,40,2013-01-24 00:52:00
5:52 PM,19.9,12.9,74,30.23,-9999.0,North,5.8,-,N/A,,Unknown,10,2013-01-24 01:52:00
6:52 PM,19.9,12.0,71,30.23,-9999.0,NNE,5.8,-,N/A,,Unknown,20,2013-01-24 02:52:00
7:52 PM,19.9,12.0,71,30.22,-9999.0,Calm,Calm,-,N/A,,Unknown,0,2013-01-24 03:52:00
8:52 PM,19.9,12.9,74,30.24,-9999.0,Calm,Calm,-,N/A,,Unknown,0,2013-01-24 04:52:00
9:52 PM,23.0,15.1,72,30.25,-9999.0,SSE,4.6,-,N/A,,Unknown,160,2013-01-24 05:52:00
10:52 PM,24.1,18.0,77,30.26,-9999.0,North,4.6,-,N/A,,Unknown,10,2013-01-24 06:52:00
11:52 PM,25.0,19.9,81,30.24,-9999.0,NNE,3.5,-,0.01,,Unknown,20,2013-01-24 07:52:00